Time;durP1;ratioP1;P1;durP2;ratioP2;P2;SDS_P1;SDS_P2;PMS_P1;PMS_P2;Temp;Humidity;BMP_temperature;BMP_pressure;BME280_temperature;BME280_humidity;BME280_pressure;Samples;Min_cycle;Max_cycle;Signal;HPM_P1;HPM_P2
2023/08/05 00:01:29;;;;;;;4.30;2.90;;;;;;;19.15;77.71;100206.08;102550;277;106016;-58
2023/08/05 00:04:07;;;;;;;7.60;2.70;;;;;;;19.13;77.86;100203.73;102568;277;114751;-54
2023/08/05 00:06:45;;;;;;;5.90;3.10;;;;;;;19.11;78.00;100204.74;102590;277;97192;-54
2023/08/05 00:09:26;;;;;;;8.30;3.00;;;;;;;19.13;78.16;100198.76;102631;277;96895;-51
2023/08/05 00:12:08;;;;;;;7.60;2.90;;;;;;;19.15;78.30;100195.72;102717;277;120196;-54
2023/08/05 00:14:47;;;;;;;4.90;3.00;;;;;;;19.17;78.49;100183.19;102759;277;104772;-58
2023/08/05 00:17:26;;;;;;;6.50;2.90;;;;;;;19.19;78.62;100176.01;102723;275;113597;-59
2023/08/05 00:20:04;;;;;;;5.90;3.00;;;;;;;19.18;78.62;100160.92;102742;277;95477;-54
2023/08/05 00:22:41;;;;;;;7.20;3.10;;;;;;;19.17;78.69;100156.25;102722;277;96861;-55
2023/08/05 00:25:18;;;;;;;5.50;2.90;;;;;;;19.12;78.82;100146.27;102735;277;119662;-58
2023/08/05 00:27:58;;;;;;;3.80;2.80;;;;;;;19.08;78.67;100139.95;102707;277;104881;-59
2023/08/05 00:30:38;;;;;;;5.20;3.00;;;;;;;19.04;78.77;100144.06;102742;277;112934;-54
2023/08/05 00:33:19;;;;;;;4.40;2.90;;;;;;;19.01;78.65;100144.62;102728;277;97025;-53
2023/08/05 00:36:00;;;;;;;7.50;3.00;;;;;;;18.97;78.79;100146.90;102738;277;98571;-57
2023/08/05 00:38:38;;;;;;;4.00;3.00;;;;;;;18.90;78.83;100146.79;102733;277;119921;-56
2023/08/05 00:41:18;;;;;;;5.40;3.10;;;;;;;18.83;78.84;100148.06;102751;277;104510;-54
2023/08/05 00:43:53;;;;;;;4.40;3.40;;;;;;;18.72;78.79;100144.47;102694;277;115141;-54
2023/08/05 00:46:31;;;;;;;5.40;2.90;;;;;;;18.63;78.88;100140.48;102701;277;96738;-55
2023/08/05 00:49:06;;;;;;;6.10;3.30;;;;;;;18.54;79.09;100142.05;102755;277;98305;-58
2023/08/05 00:51:44;;;;;;;5.10;3.00;;;;;;;18.44;79.47;100139.48;102741;277;118458;-58
2023/08/05 00:54:24;;;;;;;10.60;3.80;;;;;;;18.33;79.66;100146.17;102768;277;106268;-56
2023/08/05 00:56:59;;;;;;;8.50;3.80;;;;;;;18.29;79.81;100143.98;102746;265;113150;-57
2023/08/05 00:59:41;;;;;;;5.40;3.30;;;;;;;18.24;80.01;100136.89;102808;276;95709;-55
2023/08/05 01:02:27;;;;;;;7.50;3.10;;;;;;;18.25;80.16;100129.08;102728;277;97733;-54
2023/08/05 01:05:06;;;;;;;7.20;3.90;;;;;;;18.26;80.41;100131.66;102706;277;119584;-55
2023/08/05 01:07:50;;;;;;;5.40;3.40;;;;;;;18.30;80.42;100141.30;102744;277;106412;-52
2023/08/05 01:10:29;;;;;;;6.80;3.70;;;;;;;18.28;80.30;100143.80;102675;277;115236;-58
2023/08/05 01:13:08;;;;;;;7.00;3.20;;;;;;;18.27;80.42;100147.16;102532;277;96440;-57
2023/08/05 01:15:48;;;;;;;4.60;3.30;;;;;;;18.23;80.56;100143.75;102547;277;95883;-58
2023/08/05 01:18:29;;;;;;;8.30;3.60;;;;;;;18.19;80.84;100148.64;102536;277;120319;-57
2023/08/05 01:21:11;;;;;;;6.70;3.50;;;;;;;18.20;80.85;100149.92;102526;277;104907;-57
2023/08/05 01:23:59;;;;;;;5.60;3.10;;;;;;;18.20;80.84;100144.68;102425;277;115520;-55
2023/08/05 01:26:39;;;;;;;6.30;3.60;;;;;;;18.19;81.02;100135.73;102520;277;95573;-54
2023/08/05 01:29:24;;;;;;;6.70;3.70;;;;;;;18.18;81.07;100125.88;102599;277;98146;-58
2023/08/05 01:32:07;;;;;;;8.60;3.60;;;;;;;18.18;81.32;100133.19;102606;277;119855;-58
2023/08/05 01:34:43;;;;;;;7.50;3.90;;;;;;;18.21;81.30;100125.61;102602;277;105354;-56
2023/08/05 01:37:21;;;;;;;8.90;3.40;;;;;;;18.22;81.44;100124.81;102542;277;113477;-57
2023/08/05 01:40:02;;;;;;;8.40;3.50;;;;;;;18.26;81.43;100130.73;102588;277;96252;-58
2023/08/05 01:42:42;;;;;;;8.40;3.40;;;;;;;18.28;81.38;100124.80;102544;277;98195;-58
2023/08/05 01:45:20;;;;;;;6.60;3.40;;;;;;;18.29;81.28;100125.64;102554;277;119761;-55
2023/08/05 01:48:00;;;;;;;6.90;3.60;;;;;;;18.31;81.38;100137.98;102525;277;106035;-54
2023/08/05 01:50:39;;;;;;;8.90;3.60;;;;;;;18.34;81.53;100142.21;102524;277;114083;-54
2023/08/05 01:53:17;;;;;;;8.90;3.60;;;;;;;18.35;81.34;100147.02;102570;277;96847;-53
2023/08/05 01:55:55;;;;;;;7.10;4.00;;;;;;;18.35;81.45;100146.70;102527;275;98206;-57
2023/08/05 01:58:35;;;;;;;6.00;4.00;;;;;;;18.35;81.64;100149.43;102528;277;119340;-56
2023/08/05 02:01:14;;;;;;;7.10;3.50;;;;;;;18.38;81.76;100148.23;102516;277;104948;-58
2023/08/05 02:03:55;;;;;;;8.30;4.30;;;;;;;18.43;81.73;100151.59;102588;277;113915;-58
2023/08/05 02:06:35;;;;;;;6.30;4.30;;;;;;;18.47;81.64;100149.45;102549;277;96983;-57
2023/08/05 02:09:10;;;;;;;7.20;4.00;;;;;;;18.51;81.63;100142.20;102542;277;97967;-54
2023/08/05 02:11:51;;;;;;;8.80;4.40;;;;;;;18.55;81.50;100133.39;102695;277;120108;-54
2023/08/05 02:14:34;;;;;;;6.60;4.20;;;;;;;18.56;81.41;100131.84;102735;277;105786;-52
2023/08/05 02:17:16;;;;;;;8.60;5.30;;;;;;;18.56;81.11;100132.83;102743;277;114315;-52
2023/08/05 02:19:55;;;;;;;5.90;4.60;;;;;;;18.56;80.99;100129.97;102718;277;94739;-57
2023/08/05 02:22:38;;;;;;;7.50;4.60;;;;;;;18.48;81.01;100131.52;102775;274;97736;-58
2023/08/05 02:25:13;;;;;;;7.50;4.10;;;;;;;18.44;80.84;100122.63;102775;277;119294;-56
2023/08/05 02:27:53;;;;;;;10.40;4.60;;;;;;;18.36;80.81;100123.48;102776;277;105456;-56
2023/08/05 02:30:35;;;;;;;10.50;4.40;;;;;;;18.30;80.71;100124.13;102658;277;114845;-55
2023/08/05 02:33:15;;;;;;;8.00;4.20;;;;;;;18.22;80.84;100129.85;102673;277;96713;-54
2023/08/05 02:36:03;;;;;;;7.10;4.20;;;;;;;18.18;80.73;100125.94;102629;277;96555;-54
2023/08/05 02:38:44;;;;;;;7.70;4.00;;;;;;;18.15;80.59;100127.46;102619;270;118949;-54
2023/08/05 02:41:23;;;;;;;5.90;3.80;;;;;;;18.12;80.67;100139.05;102576;277;105055;-58
2023/08/05 02:44:06;;;;;;;9.30;4.40;;;;;;;18.09;80.65;100140.59;102552;277;114965;-57
2023/08/05 02:46:45;;;;;;;5.90;4.00;;;;;;;18.05;80.59;100140.80;102587;277;95060;-57
2023/08/05 02:49:22;;;;;;;8.30;4.00;;;;;;;18.06;80.66;100145.70;102618;277;97884;-57
2023/08/05 02:52:01;;;;;;;6.60;4.20;;;;;;;18.07;80.50;100147.16;102582;277;120215;-55
2023/08/05 02:54:42;;;;;;;6.80;4.70;;;;;;;18.08;80.50;100153.79;102566;277;103688;-57
2023/08/05 02:57:22;;;;;;;4.70;3.50;;;;;;;18.06;80.36;100157.48;102531;277;114595;-57
2023/08/05 03:00:08;;;;;;;5.90;3.80;;;;;;;18.07;80.17;100156.45;102542;277;95529;-55
2023/08/05 03:02:50;;;;;;;7.50;3.50;;;;;;;18.08;80.20;100153.48;102547;277;97200;-56
2023/08/05 03:05:30;;;;;;;6.00;3.70;;;;;;;18.10;79.87;100152.59;102552;277;121000;-54
2023/08/05 03:08:10;;;;;;;5.30;3.80;;;;;;;18.14;79.91;100151.41;102635;277;105303;-54
2023/08/05 03:10:45;;;;;;;8.40;5.30;;;;;;;18.18;79.73;100162.73;102550;277;115985;-54
2023/08/05 03:13:34;;;;;;;12.10;6.80;;;;;;;18.21;79.57;100165.30;102275;278;428953;-53
2023/08/05 03:16:18;;;;;;;14.10;7.90;;;;;;;18.24;79.45;100170.73;102600;278;96794;-54
2023/08/05 03:19:01;;;;;;;15.70;9.20;;;;;;;18.28;79.21;100167.97;102607;278;118583;-55
2023/08/05 03:21:47;;;;;;;9.70;6.00;;;;;;;18.37;78.93;100168.89;102632;279;105395;-55
2023/08/05 03:24:34;;;;;;;8.60;5.10;;;;;;;18.48;78.87;100164.14;102586;278;113294;-58
2023/08/05 03:27:11;;;;;;;7.30;4.50;;;;;;;18.59;78.52;100157.23;102593;278;94514;-58
2023/08/05 03:29:47;;;;;;;8.20;4.30;;;;;;;18.70;78.28;100150.80;102620;279;97623;-56
2023/08/05 03:32:25;;;;;;;8.10;4.50;;;;;;;18.83;78.13;100145.59;102536;278;118802;-56
2023/08/05 03:35:06;;;;;;;6.50;3.80;;;;;;;18.97;78.02;100141.38;102513;279;105785;-57
2023/08/05 03:37:44;;;;;;;5.40;3.70;;;;;;;19.11;77.45;100135.58;102497;278;114159;-57
2023/08/05 03:40:19;;;;;;;5.60;3.90;;;;;;;19.23;77.15;100128.89;102508;278;95874;-58
2023/08/05 03:42:59;;;;;;;8.20;5.20;;;;;;;19.31;76.75;100130.59;102508;278;96658;-58
2023/08/05 03:45:35;;;;;;;5.90;4.20;;;;;;;19.39;76.47;100134.45;102564;279;118960;-56
2023/08/05 03:48:11;;;;;;;12.30;6.60;;;;;;;19.49;76.11;100137.82;102579;278;106298;-56
2023/08/05 03:50:54;;;;;;;11.40;7.30;;;;;;;19.60;75.81;100142.14;102515;279;115025;-53
2023/08/05 03:53:31;;;;;;;8.00;5.20;;;;;;;19.81;75.43;100138.69;102554;278;94159;-54
2023/08/05 03:56:08;;;;;;;9.60;4.80;;;;;;;20.17;74.64;100135.64;102583;279;98086;-57
2023/08/05 03:58:51;;;;;;;5.90;3.10;;;;;;;20.38;74.14;100131.88;102566;278;120502;-55
2023/08/05 04:01:39;;;;;;;6.80;3.20;;;;;;;20.61;73.58;100124.90;102549;278;105779;-55
2023/08/05 04:04:23;;;;;;;8.20;3.50;;;;;;;20.75;72.92;100122.98;102606;278;114670;-54
2023/08/05 04:07:01;;;;;;;4.70;3.20;;;;;;;20.60;72.55;100119.83;102603;278;94355;-55
2023/08/05 04:09:40;;;;;;;5.50;3.00;;;;;;;20.43;72.16;100123.58;102584;279;97787;-54
2023/08/05 04:12:23;;;;;;;3.60;2.80;;;;;;;20.30;72.10;100128.98;102618;277;119794;-55
2023/08/05 04:15:02;;;;;;;6.20;2.90;;;;;;;20.23;72.15;100131.88;102565;277;105078;-56
2023/08/05 04:17:39;;;;;;;6.40;3.30;;;;;;;20.14;72.03;100131.44;102566;277;114045;-56
2023/08/05 04:20:17;;;;;;;5.10;2.90;;;;;;;20.11;72.04;100126.41;102564;277;95849;-54
2023/08/05 04:23:05;;;;;;;7.10;4.20;;;;;;;20.09;71.93;100126.27;102514;277;97530;-54
2023/08/05 04:25:51;;;;;;;4.50;3.20;;;;;;;20.08;72.01;100126.49;102550;277;119850;-56
2023/08/05 04:28:33;;;;;;;7.60;3.60;;;;;;;20.20;72.05;100117.34;102605;277;105241;-56
2023/08/05 04:31:12;;;;;;;7.20;3.90;;;;;;;20.34;72.07;100120.09;102525;277;114558;-53
2023/08/05 04:33:48;;;;;;;7.00;3.50;;;;;;;20.53;71.93;100114.23;102574;277;93226;-55
2023/08/05 04:36:27;;;;;;;5.60;3.50;;;;;;;20.77;71.66;100110.64;102574;277;98239;-54
2023/08/05 04:39:03;;;;;;;6.80;3.00;;;;;;;20.94;71.18;100109.95;102575;277;120397;-58
2023/08/05 04:41:44;;;;;;;8.00;3.70;;;;;;;21.08;70.84;100111.05;102550;277;103849;-58
2023/08/05 04:44:27;;;;;;;5.10;3.10;;;;;;;20.97;70.46;100115.85;102570;277;115107;-53
2023/08/05 04:47:11;;;;;;;6.40;4.00;;;;;;;20.88;70.45;100116.71;102583;277;94195;-54
2023/08/05 04:49:51;;;;;;;5.80;3.00;;;;;;;20.70;70.37;100117.45;102626;277;97029;-55
2023/08/05 04:52:30;;;;;;;5.10;3.30;;;;;;;20.53;70.33;100119.72;102597;277;119861;-55
2023/08/05 04:55:15;;;;;;;4.60;3.30;;;;;;;20.37;70.28;100118.37;102607;277;105640;-55
2023/08/05 04:58:05;;;;;;;7.10;3.40;;;;;;;20.24;70.32;100108.84;102570;277;114800;-56
2023/08/05 05:00:43;;;;;;;8.20;3.50;;;;;;;20.14;70.64;100105.93;102593;277;96885;-55
2023/08/05 05:03:23;;;;;;;5.40;3.10;;;;;;;20.09;70.59;100105.21;102582;277;97929;-55
2023/08/05 05:06:00;;;;;;;4.50;3.50;;;;;;;20.08;70.83;100105.92;102544;267;121216;-53
2023/08/05 05:08:37;;;;;;;9.50;4.60;;;;;;;20.04;70.83;100106.15;102554;277;104694;-55
2023/08/05 05:11:12;;;;;;;5.60;3.70;;;;;;;20.07;70.93;100107.55;102564;277;114560;-58
2023/08/05 05:13:50;;;;;;;8.20;5.20;;;;;;;20.10;71.02;100111.32;102568;278;95297;-55
2023/08/05 05:16:25;;;;;;;11.10;6.80;;;;;;;20.12;71.02;100109.59;102452;279;96298;-55
2023/08/05 05:19:06;;;;;;;11.30;7.10;;;;;;;20.17;71.08;100105.08;102533;279;120155;-58
2023/08/05 05:21:49;;;;;;;8.20;4.60;;;;;;;20.21;70.93;100112.30;102483;278;105412;-59
2023/08/05 05:24:24;;;;;;;9.20;4.90;;;;;;;20.22;70.77;100121.83;102561;278;114188;-57
2023/08/05 05:27:02;;;;;;;6.50;3.80;;;;;;;20.27;70.89;100114.91;102522;278;96253;-56
2023/08/05 05:29:48;;;;;;;7.00;3.40;;;;;;;20.32;70.80;100116.77;102574;278;97401;-55
2023/08/05 05:32:27;;;;;;;7.30;3.50;;;;;;;20.33;70.76;100118.49;102560;278;119857;-55
2023/08/05 05:35:05;;;;;;;8.30;3.40;;;;;;;20.35;70.77;100122.59;102538;279;105835;-58
2023/08/05 05:37:42;;;;;;;7.00;3.20;;;;;;;20.40;70.78;100121.25;102547;278;114661;-58
2023/08/05 05:40:16;;;;;;;6.60;3.50;;;;;;;20.47;70.62;100116.26;102577;279;95005;-58
2023/08/05 05:42:57;;;;;;;8.70;3.90;;;;;;;20.81;70.63;100110.61;102601;278;97282;-58
2023/08/05 05:45:38;;;;;;;10.60;3.90;;;;;;;21.25;70.05;100101.98;102568;278;119116;-55
2023/08/05 05:48:25;;;;;;;10.40;4.00;;;;;;;21.90;69.81;100094.52;102539;278;103877;-55
2023/08/05 05:51:06;;;;;;;9.80;3.40;;;;;;;22.49;68.75;100089.63;102578;279;114465;-53
2023/08/05 05:53:44;;;;;;;5.10;3.00;;;;;;;22.91;67.89;100081.31;102545;279;93291;-56
2023/08/05 05:56:27;;;;;;;7.50;3.00;;;;;;;23.02;67.16;100071.92;102546;278;96647;-58
2023/08/05 05:59:11;;;;;;;5.40;3.30;;;;;;;22.83;66.39;100073.44;102530;279;119990;-54
2023/08/05 06:01:58;;;;;;;6.80;2.90;;;;;;;22.50;66.45;100072.84;102559;279;105563;-53
2023/08/05 06:04:42;;;;;;;8.80;3.10;;;;;;;22.37;66.48;100071.16;102554;278;113816;-54
2023/08/05 06:07:19;;;;;;;7.00;3.10;;;;;;;22.37;66.33;100068.86;102547;279;93427;-52
2023/08/05 06:10:03;;;;;;;8.80;3.60;;;;;;;22.32;66.29;100070.41;102601;278;98399;-57
2023/08/05 06:12:42;;;;;;;5.80;2.90;;;;;;;22.14;66.14;100081.66;102545;277;119297;-57
2023/08/05 06:15:21;;;;;;;7.00;3.00;;;;;;;22.00;66.26;100088.11;102573;277;105866;-56
2023/08/05 06:17:59;;;;;;;4.90;2.50;;;;;;;21.82;66.34;100085.74;102612;277;113165;-55
2023/08/05 06:20:40;;;;;;;5.50;2.80;;;;;;;21.57;66.28;100082.14;102589;277;95059;-56
2023/08/05 06:23:20;;;;;;;6.00;2.60;;;;;;;21.39;66.68;100069.80;102558;277;97756;-56
2023/08/05 06:25:56;;;;;;;9.00;3.20;;;;;;;21.23;66.95;100058.11;102601;277;119714;-54
2023/08/05 06:28:36;;;;;;;10.30;3.60;;;;;;;21.11;67.43;100059.10;102611;277;104207;-53
2023/08/05 06:31:21;;;;;;;5.90;2.80;;;;;;;21.02;67.64;100060.89;102552;277;113682;-54
2023/08/05 06:34:03;;;;;;;;;;;;;;;20.98;67.78;100070.59;102619;277;97145;-54
2023/08/05 06:36:45;;;;;;;4.80;2.80;;;;;;;20.97;68.19;100072.94;102580;277;96388;-54
2023/08/05 06:39:26;;;;;;;6.20;3.20;;;;;;;20.98;68.45;100077.07;102583;277;119643;-58
2023/08/05 06:42:07;;;;;;;6.10;3.20;;;;;;;20.94;69.04;100078.20;102577;277;105414;-58
2023/08/05 06:44:51;;;;;;;7.90;3.30;;;;;;;20.89;69.59;100074.43;102563;277;113535;-55
2023/08/05 06:47:31;;;;;;;6.90;3.00;;;;;;;20.87;70.19;100077.55;102518;277;94881;-57
2023/08/05 06:50:10;;;;;;;6.60;3.10;;;;;;;20.82;70.54;100083.60;102547;277;97401;-55
2023/08/05 06:52:49;;;;;;;4.60;2.70;;;;;;;20.78;71.06;100087.70;102557;277;119616;-55
2023/08/05 06:55:27;;;;;;;5.80;2.50;;;;;;;20.76;71.87;100098.45;102561;274;107231;-55
2023/08/05 06:58:12;;;;;;;4.90;2.70;;;;;;;20.70;72.64;100099.55;102492;277;114682;-53
2023/08/05 07:00:56;;;;;;;4.50;3.10;;;;;;;20.63;72.64;100087.85;102541;277;96743;-56
2023/08/05 07:03:38;;;;;;;5.00;2.70;;;;;;;20.55;72.77;100065.34;102568;277;97740;-56
2023/08/05 07:06:18;;;;;;;4.50;2.70;;;;;;;20.55;73.13;100072.47;102582;277;119281;-54
2023/08/05 07:08:54;;;;;;;4.90;2.90;;;;;;;20.57;73.49;100101.09;102568;277;104796;-56
2023/08/05 07:11:35;;;;;;;6.80;2.70;;;;;;;20.51;74.14;100118.21;102568;277;113526;-54
2023/08/05 07:14:12;;;;;;;5.40;2.80;;;;;;;20.41;74.46;100125.88;102624;278;96669;-55
2023/08/05 07:16:49;;;;;;;4.90;2.90;;;;;;;20.38;74.86;100127.98;102578;279;98118;-55
2023/08/05 07:19:35;;;;;;;5.90;2.90;;;;;;;20.38;75.38;100121.16;102551;278;119764;-55
2023/08/05 07:22:11;;;;;;;4.70;2.70;;;;;;;20.34;75.98;100121.30;102555;278;105172;-56
2023/08/05 07:24:53;;;;;;;4.80;2.60;;;;;;;20.33;76.42;100125.40;102532;278;114755;-58
2023/08/05 07:27:31;;;;;;;4.90;3.10;;;;;;;20.32;76.85;100125.29;102375;279;96809;-60
2023/08/05 07:30:13;;;;;;;4.30;2.80;;;;;;;20.21;77.21;100124.10;102553;278;96751;-57
2023/08/05 07:32:52;;;;;;;5.50;2.90;;;;;;;20.12;77.42;100110.84;102519;279;119677;-58
2023/08/05 07:35:33;;;;;;;5.70;2.80;;;;;;;20.14;78.07;100091.39;102538;278;105826;-53
2023/08/05 07:38:14;;;;;;;4.20;2.90;;;;;;;20.24;78.26;100088.22;102496;278;114521;-54
2023/08/05 07:40:55;;;;;;;5.80;3.30;;;;;;;20.33;78.63;100098.41;102582;278;95400;-56
2023/08/05 07:43:42;;;;;;;5.50;3.80;;;;;;;20.33;78.61;100101.48;102538;279;97565;-56
2023/08/05 07:46:19;;;;;;;3.60;3.30;;;;;;;20.36;78.47;100112.48;102527;278;120977;-56
2023/08/05 07:49:01;;;;;;;3.90;3.10;;;;;;;20.36;78.79;100121.81;102514;279;106376;-57
2023/08/05 07:51:46;;;;;;;4.40;2.90;;;;;;;20.34;79.02;100134.25;102583;279;113778;-56
2023/08/05 07:54:26;;;;;;;6.80;3.40;;;;;;;20.37;79.11;100143.88;102537;278;96434;-56
2023/08/05 07:57:07;;;;;;;3.70;2.90;;;;;;;20.35;79.57;100147.98;102562;278;98253;-54
2023/08/05 07:59:43;;;;;;;3.40;2.80;;;;;;;20.33;79.73;100153.45;102598;278;121068;-55
2023/08/05 08:02:22;;;;;;;7.40;2.90;;;;;;;20.28;79.87;100159.04;102546;278;105606;-56
2023/08/05 08:05:04;;;;;;;4.70;3.10;;;;;;;20.23;80.22;100160.17;102460;278;114720;-55
2023/08/05 08:07:46;;;;;;;6.20;3.10;;;;;;;20.18;80.32;100149.27;102522;278;95916;-55
2023/08/05 08:10:25;;;;;;;6.30;3.20;;;;;;;20.14;80.46;100139.61;102503;277;98479;-56
2023/08/05 08:13:04;;;;;;;7.10;3.60;;;;;;;20.11;80.59;100137.71;102552;277;119211;-56
2023/08/05 08:15:50;;;;;;;5.70;3.30;;;;;;;20.08;80.87;100141.30;102593;277;104631;-60
2023/08/05 08:18:31;;;;;;;6.70;4.10;;;;;;;20.04;81.05;100146.14;102476;277;114929;-60
2023/08/05 08:21:11;;;;;;;6.00;4.10;;;;;;;20.02;81.53;100153.20;102567;277;95060;-57
2023/08/05 08:23:57;;;;;;;6.50;3.60;;;;;;;20.02;81.94;100149.67;102580;277;98587;-56
2023/08/05 08:26:39;;;;;;;7.20;4.00;;;;;;;19.97;82.13;100136.17;102522;277;121114;-55
2023/08/05 08:29:16;;;;;;;6.70;4.00;;;;;;;19.95;82.19;100149.70;102563;277;104987;-58
2023/08/05 08:32:00;;;;;;;6.90;3.40;;;;;;;19.96;82.42;100153.79;102596;277;114125;-59
2023/08/05 08:34:41;;;;;;;5.40;3.90;;;;;;;19.91;82.77;100146.59;102580;277;96738;-61
2023/08/05 08:37:21;;;;;;;6.90;4.10;;;;;;;19.90;82.94;100151.41;102540;277;97649;-60
2023/08/05 08:40:02;;;;;;;7.80;4.30;;;;;;;19.92;83.21;100158.61;102544;277;121227;-54
2023/08/05 08:42:44;;;;;;;9.10;4.90;;;;;;;19.93;83.23;100171.79;102531;277;104800;-54
2023/08/05 08:45:34;;;;;;;6.60;4.30;;;;;;;19.93;83.16;100177.27;102604;277;114857;-63
2023/08/05 08:48:14;;;;;;;5.80;3.80;;;;;;;19.86;83.58;100172.30;102587;277;97099;-61
2023/08/05 08:50:58;;;;;;;7.50;4.70;;;;;;;19.77;83.61;100153.94;102605;277;98490;-58
2023/08/05 08:53:44;;;;;;;6.60;4.10;;;;;;;19.65;83.79;100140.28;102576;277;119235;-57
2023/08/05 08:56:21;;;;;;;9.80;5.50;;;;;;;19.63;83.88;100125.47;102601;277;104413;-59
2023/08/05 08:59:02;;;;;;;8.80;6.50;;;;;;;19.61;83.96;100116.23;102609;277;113624;-57
2023/08/05 09:01:41;;;;;;;8.60;7.60;;;;;;;19.54;84.25;100113.89;102573;277;96688;-57
2023/08/05 09:04:20;;;;;;;10.80;7.50;;;;;;;19.49;84.73;100110.05;102594;277;97035;-55
2023/08/05 09:07:05;;;;;;;10.00;5.30;;;;;;;19.50;84.83;100110.39;102526;277;119963;-56
2023/08/05 09:09:50;;;;;;;7.70;4.70;;;;;;;19.48;84.95;100099.98;102406;278;105316;-61
2023/08/05 09:12:31;;;;;;;;;;;;;;;19.47;85.03;100097.36;102548;278;114517;-60
2023/08/05 09:15:14;;;;;;;7.90;5.20;;;;;;;19.47;84.88;100089.90;102433;279;97284;-57
2023/08/05 09:17:59;;;;;;;7.60;4.10;;;;;;;19.46;84.88;100069.02;102582;279;97515;-56
2023/08/05 09:20:40;;;;;;;8.60;4.60;;;;;;;19.46;85.10;100050.11;102525;278;118800;-59
2023/08/05 09:23:22;;;;;;;7.00;3.90;;;;;;;19.39;85.13;100056.45;102541;279;104932;-58
2023/08/05 09:25:58;;;;;;;5.70;3.90;;;;;;;19.43;85.11;100054.85;102547;279;115083;-58
2023/08/05 09:28:41;;;;;;;7.20;4.20;;;;;;;19.44;84.98;100045.73;102539;278;96654;-57
2023/08/05 09:31:24;;;;;;;6.90;4.40;;;;;;;19.40;85.13;100027.04;102567;279;97676;-55
2023/08/05 09:34:10;;;;;;;7.00;4.00;;;;;;;19.33;85.21;100019.14;102585;279;120282;-56
2023/08/05 09:36:52;;;;;;;9.60;4.10;;;;;;;19.29;85.31;100000.80;102466;280;107160;-56
2023/08/05 09:39:44;;;;;;;4.80;3.80;;;;;;;19.23;85.55;99989.88;102550;278;114830;-58
2023/08/05 09:42:31;;;;;;;7.40;3.90;;;;;;;19.26;85.54;99981.74;102549;279;95561;-57
2023/08/05 09:45:13;;;;;;;4.80;3.40;;;;;;;19.21;85.87;99979.33;102600;278;97363;-57
2023/08/05 09:47:58;;;;;;;4.70;3.40;;;;;;;19.18;85.83;99975.79;102539;278;119885;-57
2023/08/05 09:50:37;;;;;;;4.80;3.60;;;;;;;19.16;85.95;99966.28;102432;280;103467;-57
2023/08/05 09:53:24;;;;;;;4.60;3.50;;;;;;;19.16;86.10;99957.14;102531;279;114624;-56
2023/08/05 09:56:02;;;;;;;5.90;3.80;;;;;;;19.22;86.04;99938.43;102429;280;96174;-55
2023/08/05 09:58:40;;;;;;;6.30;3.80;;;;;;;19.27;86.08;99924.84;102500;279;96655;-55
2023/08/05 10:01:18;;;;;;;6.10;4.30;;;;;;;19.23;86.39;99910.11;102490;279;121240;-58
2023/08/05 10:04:02;;;;;;;6.90;4.40;;;;;;;19.27;86.31;99876.27;102523;278;105622;-56
2023/08/05 10:06:42;;;;;;;8.50;3.80;;;;;;;19.25;86.71;99829.41;102536;279;114873;-56
2023/08/05 10:09:27;;;;;;;5.10;3.10;;;;;;;19.10;87.10;99790.33;102508;279;96724;-56
2023/08/05 10:12:06;;;;;;;4.60;2.70;;;;;;;18.97;87.47;99739.40;102552;277;97132;-56
2023/08/05 10:14:42;;;;;;;4.40;2.90;;;;;;;18.85;88.40;99719.58;102596;277;120983;-55
2023/08/05 10:17:28;;;;;;;5.20;3.20;;;;;;;18.81;88.18;99730.16;102569;277;106528;-56
2023/08/05 10:20:06;;;;;;;5.00;2.70;;;;;;;18.82;87.96;99773.71;102507;277;113743;-56
2023/08/05 10:23:00;;;;;;;4.30;2.70;;;;;;;18.99;87.98;99834.89;102563;277;96772;-56
2023/08/05 10:25:58;;;;;;;5.60;2.90;;;;;;;19.40;87.97;99891.97;102565;277;96732;-55
2023/08/05 10:28:47;;;;;;;4.80;2.70;;;;;;;19.99;88.66;99925.71;102550;277;120317;-55
2023/08/05 10:31:51;;;;;;;3.50;2.70;;;;;;;20.84;89.57;99943.36;102581;277;103547;-58
2023/08/05 10:34:33;;;;;;;3.60;2.50;;;;;;;21.55;88.52;99948.04;102541;277;113550;-60
2023/08/05 10:37:10;;;;;;;4.50;2.20;;;;;;;21.88;87.11;99972.63;102603;277;96809;-62
2023/08/05 10:40:02;;;;;;;5.00;2.70;;;;;;;21.94;85.83;99987.27;102617;277;97288;-62
2023/08/05 10:42:48;;;;;;;3.80;2.30;;;;;;;21.93;84.40;99990.58;102553;277;120536;-61
2023/08/05 10:45:30;;;;;;;5.60;2.20;;;;;;;21.68;83.55;99984.57;102540;277;103984;-64
2023/08/05 10:48:13;;;;;;;3.30;1.60;;;;;;;21.39;83.37;99979.10;102508;277;115299;-63
2023/08/05 10:50:56;;;;;;;3.30;2.50;;;;;;;21.17;83.14;99965.95;102589;277;95260;-64
2023/08/05 10:53:37;;;;;;;3.20;2.40;;;;;;;21.02;83.04;99962.34;102572;277;97102;-62
2023/08/05 10:56:21;;;;;;;4.10;2.30;;;;;;;20.94;82.94;99967.35;102579;277;119133;-64
2023/08/05 10:59:02;;;;;;;3.70;2.30;;;;;;;20.84;83.03;99960.16;102612;277;105750;-64
2023/08/05 11:02:02;;;;;;;4.90;2.90;;;;;;;20.78;82.93;99946.08;102596;277;113416;-63
2023/08/05 11:04:46;;;;;;;6.40;2.10;;;;;;;20.77;83.20;99939.38;102567;277;95238;-63
2023/08/05 11:07:29;;;;;;;3.80;2.10;;;;;;;20.85;83.26;99924.70;102597;277;97069;-63
2023/08/05 11:10:06;;;;;;;2.70;2.00;;;;;;;21.04;83.46;99916.11;102549;277;120176;-65
2023/08/05 11:12:47;;;;;;;4.20;2.50;;;;;;;21.32;83.54;99907.75;102100;280;468799;-66
2023/08/05 11:15:24;;;;;;;3.40;2.00;;;;;;;21.60;83.45;99906.75;102451;279;114432;-62
2023/08/05 11:18:00;;;;;;;3.80;2.30;;;;;;;21.83;83.22;99904.67;102548;279;94340;-64
2023/08/05 11:20:41;;;;;;;4.10;2.10;;;;;;;21.99;82.67;99909.92;102546;278;97786;-61
2023/08/05 11:23:24;;;;;;;3.70;2.00;;;;;;;22.16;82.43;99910.30;102536;278;120621;-63
2023/08/05 11:26:06;;;;;;;5.60;2.10;;;;;;;22.27;81.82;99902.41;102551;278;106431;-62
2023/08/05 11:28:48;;;;;;;3.30;2.20;;;;;;;22.31;81.64;99901.03;102524;278;114476;-64
2023/08/05 11:31:30;;;;;;;4.50;2.10;;;;;;;22.34;81.20;99904.11;102595;279;93702;-64
2023/08/05 11:34:21;;;;;;;5.30;3.30;;;;;;;22.19;80.95;99895.77;102614;278;95897;-64
2023/08/05 11:37:06;;;;;;;3.20;2.50;;;;;;;22.08;80.84;99905.36;102515;278;120949;-64
2023/08/05 11:39:49;;;;;;;3.20;2.10;;;;;;;21.95;80.64;99901.11;102547;278;106136;-63
2023/08/05 11:42:30;;;;;;;3.80;2.40;;;;;;;21.65;80.78;99898.50;102542;278;115034;-64
2023/08/05 11:45:13;;;;;;;3.20;2.20;;;;;;;21.69;81.11;99894.27;102551;278;96252;-63
2023/08/05 11:47:51;;;;;;;3.80;2.40;;;;;;;21.81;81.26;99897.70;102612;278;95211;-63
2023/08/05 11:50:38;;;;;;;2.60;2.10;;;;;;;22.03;81.21;99895.41;102570;279;119580;-63
2023/08/05 11:53:16;;;;;;;5.10;2.70;;;;;;;22.35;80.86;99886.44;102538;278;106024;-61
2023/08/05 11:55:55;;;;;;;3.20;2.30;;;;;;;22.47;80.64;99876.27;102595;278;114189;-62
2023/08/05 11:58:37;;;;;;;7.20;3.20;;;;;;;22.66;80.75;99869.63;102552;278;95381;-63
2023/08/05 12:01:12;;;;;;;4.00;2.20;;;;;;;22.90;80.58;99862.04;102542;279;98208;-64
2023/08/05 12:04:07;;;;;;;4.20;2.70;;;;;;;22.97;80.04;99851.70;102591;278;120256;-63
2023/08/05 12:06:50;;;;;;;6.90;3.00;;;;;;;23.23;79.71;99844.04;102547;278;105450;-63
2023/08/05 12:09:32;;;;;;;16.10;11.60;;;;;;;23.47;79.44;99847.10;102512;278;115458;-66
2023/08/05 12:12:15;;;;;;;6.50;3.70;;;;;;;23.69;79.14;99847.75;102564;277;96959;-65
2023/08/05 12:15:10;;;;;;;4.10;2.50;;;;;;;23.74;78.51;99849.92;102572;277;96611;-64
2023/08/05 12:17:51;;;;;;;5.30;3.60;;;;;;;23.62;78.01;99845.48;102600;277;120831;-64
2023/08/05 12:20:28;;;;;;;3.70;2.70;;;;;;;23.64;77.55;99848.19;102626;277;106277;-61
2023/08/05 12:23:06;;;;;;;4.40;2.70;;;;;;;23.43;77.15;99855.84;102552;277;115066;-54
2023/08/05 12:25:47;;;;;;;3.80;2.50;;;;;;;23.33;77.17;99846.73;102601;277;92888;-54